Time;durP1;ratioP1;P1;durP2;ratioP2;P2;SDS_P1;SDS_P2;PMS_P1;PMS_P2;Temp;Humidity;BMP_temperature;BMP_pressure;BME280_temperature;BME280_humidity;BME280_pressure;Samples;Min_cycle;Max_cycle;Signal;HPM_P1;HPM_P2
2022/08/06 00:00:07;;;;;;;2.88;2.15;;;;;17.00;94778.00;;;;7387650;19;20128;-75
2022/08/06 00:02:36;;;;;;;3.60;1.73;;;;;17.00;94779.00;;;;7391157;19;20145;-75
2022/08/06 00:05:11;;;;;;;3.83;1.80;;;;;17.00;94785.00;;;;7396396;19;20116;-75
2022/08/06 00:07:56;;;;;;;2.40;1.77;;;;;16.90;94781.00;;;;7393802;19;20128;-75
2022/08/06 00:10:33;;;;;;;2.92;1.85;;;;;16.90;94781.00;;;;7394191;19;20598;-75
2022/08/06 00:13:01;;;;;;;3.38;2.00;;;;;16.80;94784.00;;;;7396460;19;20143;-75
2022/08/06 00:15:33;;;;;;;2.22;2.00;;;;;16.90;94781.00;;;;7393789;19;20605;-76
2022/08/06 00:18:26;;;;;;;6.95;2.40;;;;;16.90;94779.00;;;;7393060;19;20141;-76
2022/08/06 00:20:54;;;;;;;3.97;2.17;;;;;16.90;94773.00;;;;7394111;19;20595;-74
2022/08/06 00:23:34;;;;;;;2.78;1.90;;;;;16.80;94773.00;;;;7392807;19;20758;-76
2022/08/06 00:26:28;;;;;;;3.05;2.00;;;;;16.90;94768.00;;;;7395228;19;20157;-76
2022/08/06 00:29:04;;;;;;;3.00;1.70;;;;;16.80;94777.00;;;;7392277;19;20619;-75
2022/08/06 00:31:36;;;;;;;4.10;2.30;;;;;16.90;94777.00;;;;7395959;19;20509;-76
2022/08/06 00:34:10;;;;;;;5.00;1.95;;;;;16.90;94794.00;;;;7393278;19;20617;-75
2022/08/06 00:36:40;;;;;;;2.05;1.70;;;;;16.80;94789.00;;;;7394605;19;20176;-75
2022/08/06 00:39:07;;;;;;;2.95;1.80;;;;;16.70;94789.00;;;;7391764;19;20129;-75
2022/08/06 00:41:42;;;;;;;5.00;1.90;;;;;16.70;94789.00;;;;7397057;19;20132;-76
2022/08/06 00:44:13;;;;;;;2.50;1.85;;;;;16.70;94778.00;;;;7393888;19;20121;-75
2022/08/06 00:46:41;;;;;;;3.17;1.90;;;;;16.70;94780.00;;;;7394737;19;20141;-75
2022/08/06 00:49:16;;;;;;;3.53;1.98;;;;;16.70;94786.00;;;;7390599;19;20885;-76
2022/08/06 00:52:04;;;;;;;3.90;1.90;;;;;16.80;94791.00;;;;7392573;19;20192;-75
2022/08/06 00:54:52;;;;;;;3.30;2.00;;;;;16.70;94787.00;;;;7390640;19;20141;-76
2022/08/06 00:57:20;;;;;;;2.50;1.90;;;;;16.80;94787.00;;;;7397132;19;20153;-75
2022/08/06 00:59:56;;;;;;;2.45;2.08;;;;;16.70;94794.00;;;;7394120;19;20128;-75
2022/08/06 01:02:28;;;;;;;6.10;2.25;;;;;16.70;94786.00;;;;7389838;19;20175;-76
2022/08/06 01:05:05;;;;;;;3.35;1.77;;;;;16.60;94787.00;;;;7394272;19;20144;-77
2022/08/06 01:07:54;;;;;;;2.03;1.70;;;;;16.60;94792.00;;;;7392280;19;20591;-77
2022/08/06 01:10:29;;;;;;;1.95;1.73;;;;;16.60;94790.00;;;;7394439;19;20152;-76
2022/08/06 01:13:09;;;;;;;4.38;1.88;;;;;16.50;94788.00;;;;7394931;19;20132;-76
2022/08/06 01:16:22;;;;;;;3.10;2.00;;;;;16.50;94791.00;;;;7390280;19;20159;-76
2022/08/06 01:19:00;;;;;;;3.05;2.08;;;;;16.40;94789.00;;;;7393079;19;20600;-78
2022/08/06 01:22:32;;;;;;;3.60;1.90;;;;;16.40;94802.00;;;;7390181;19;20143;-76
2022/08/06 01:25:15;;;;;;;2.40;1.77;;;;;16.40;94798.00;;;;7391475;19;20180;-76
2022/08/06 01:28:01;;;;;;;5.68;2.00;;;;;16.30;94797.00;;;;7393451;19;20535;-76
2022/08/06 01:30:44;;;;;;;2.67;1.80;;;;;16.30;94799.00;;;;7390573;19;20128;-77
2022/08/06 01:33:27;;;;;;;2.53;1.90;;;;;16.20;94802.00;;;;7392029;19;20157;-76
2022/08/06 01:36:04;;;;;;;3.55;1.85;;;;;16.20;94801.00;;;;7392792;19;20516;-76
2022/08/06 01:38:44;;;;;;;3.17;2.05;;;;;16.20;94798.00;;;;7392869;19;20125;-76
2022/08/06 01:41:41;;;;;;;3.60;1.95;;;;;16.10;94810.00;;;;7389751;19;20227;-76
2022/08/06 01:44:37;;;;;;;3.75;1.80;;;;;16.20;94813.00;;;;7393366;19;20153;-76
2022/08/06 01:47:08;;;;;;;4.05;1.98;;;;;16.20;94810.00;;;;7392894;19;20575;-76
2022/08/06 01:49:53;;;;;;;4.70;2.20;;;;;16.10;94808.00;;;;7386603;19;20149;-76
2022/08/06 01:52:50;;;;;;;7.28;2.10;;;;;16.10;94799.00;;;;7391748;19;20486;-76
2022/08/06 01:55:31;;;;;;;3.35;1.85;;;;;16.10;94795.00;;;;7392646;19;20129;-76
2022/08/06 01:58:24;;;;;;;4.35;1.67;;;;;16.00;94802.00;;;;7394132;19;20140;-76
2022/08/06 02:01:03;;;;;;;3.88;1.80;;;;;16.00;94801.00;;;;7390497;19;20588;-76
2022/08/06 02:03:44;;;;;;;3.05;1.90;;;;;15.90;94803.00;;;;7390744;19;20176;-76
2022/08/06 02:06:37;;;;;;;1.70;1.60;;;;;16.00;94799.00;;;;7392327;19;20132;-76
2022/08/06 02:09:09;;;;;;;2.60;1.73;;;;;16.00;94801.00;;;;7391168;19;20125;-76
2022/08/06 02:12:04;;;;;;;4.57;1.80;;;;;16.10;94795.00;;;;7389507;19;20600;-76
2022/08/06 02:14:56;;;;;;;4.88;2.30;;;;;16.00;94793.00;;;;7389532;19;20255;-76
2022/08/06 02:17:41;;;;;;;2.75;2.00;;;;;16.10;94784.00;;;;7392622;19;20160;-76
2022/08/06 02:20:36;;;;;;;2.40;1.80;;;;;15.90;94800.00;;;;7388830;19;20630;-76
2022/08/06 02:23:34;;;;;;;6.22;1.83;;;;;16.00;94809.00;;;;7390909;19;20356;-77
2022/08/06 02:26:13;;;;;;;2.88;1.83;;;;;16.10;94805.00;;;;7389440;19;20532;-75
2022/08/06 02:28:53;;;;;;;4.22;1.90;;;;;16.00;94792.00;;;;7390280;19;20982;-77
2022/08/06 02:31:21;;;;;;;2.78;1.95;;;;;16.00;94791.00;;;;7388760;19;20133;-74
2022/08/06 02:34:05;;;;;;;3.15;1.83;;;;;15.80;94794.00;;;;7391772;19;20218;-74
2022/08/06 02:36:49;;;;;;;2.35;1.77;;;;;15.60;94795.00;;;;7387948;19;20137;-76
2022/08/06 02:39:31;;;;;;;2.30;2.03;;;;;15.70;94792.00;;;;7387858;19;20135;-76
2022/08/06 02:42:31;;;;;;;3.15;2.20;;;;;15.50;94788.00;;;;7389227;19;20129;-75
2022/08/06 02:45:12;;;;;;;4.53;1.70;;;;;15.50;94800.00;;;;7388089;19;20161;-75
2022/08/06 02:47:51;;;;;;;2.83;2.00;;;;;15.50;94807.00;;;;7390183;19;20145;-75
2022/08/06 02:50:50;;;;;;;3.25;1.80;;;;;15.50;94809.00;;;;7387919;19;20226;-76
2022/08/06 02:53:21;;;;;;;4.32;2.08;;;;;15.70;94806.00;;;;7391576;19;20790;-74
2022/08/06 02:56:19;;;;;;;4.18;2.00;;;;;15.50;94798.00;;;;7389644;19;20215;-75
2022/08/06 02:58:56;;;;;;;3.20;2.00;;;;;15.30;94792.00;;;;7393014;19;20587;-75
2022/08/06 03:01:34;;;;;;;3.22;1.90;;;;;15.40;94794.00;;;;7395810;19;20137;-75
2022/08/06 03:04:11;;;;;;;2.55;2.03;;;;;15.40;94793.00;;;;7395420;19;20549;-75
2022/08/06 03:06:54;;;;;;;3.13;2.03;;;;;15.20;94801.00;;;;7398850;19;20297;-75
2022/08/06 03:09:22;;;;;;;5.72;2.20;;;;;15.30;94798.00;;;;7392296;19;20632;-76
2022/08/06 03:12:01;;;;;;;4.45;2.40;;;;;15.20;94805.00;;;;7394702;19;20610;-76
2022/08/06 03:14:30;;;;;;;1.92;1.73;;;;;15.10;94813.00;;;;7395279;19;20208;-77
2022/08/06 03:17:25;;;;;;;4.30;2.40;;;;;15.20;94816.00;;;;7396987;19;20178;-74
2022/08/06 03:19:57;;;;;;;3.45;2.15;;;;;15.10;94818.00;;;;7395717;19;20655;-74
2022/08/06 03:22:36;;;;;;;3.97;1.92;;;;;15.10;94820.00;;;;7395017;19;20156;-75
2022/08/06 03:25:19;;;;;;;3.15;2.30;;;;;15.10;94816.00;;;;7391779;19;20178;-75
2022/08/06 03:27:59;;;;;;;2.60;1.75;;;;;15.10;94812.00;;;;7394930;19;20133;-75
2022/08/06 03:30:30;;;;;;;3.72;2.10;;;;;15.00;94822.00;;;;7396275;19;20140;-74
2022/08/06 03:33:16;;;;;;;4.03;2.17;;;;;15.10;94815.00;;;;7396065;19;20603;-75
2022/08/06 03:36:04;;;;;;;7.88;2.20;;;;;15.10;94821.00;;;;7393754;19;20140;-75
2022/08/06 03:38:53;;;;;;;2.63;1.90;;;;;15.10;94811.00;;;;7397504;19;20137;-75
2022/08/06 03:41:27;;;;;;;3.25;2.10;;;;;15.20;94814.00;;;;7395299;19;20141;-75
2022/08/06 03:44:22;;;;;;;3.92;2.20;;;;;15.10;94819.00;;;;7393892;19;20827;-75
2022/08/06 03:47:04;;;;;;;4.00;2.20;;;;;15.30;94820.00;;;;7395893;19;20171;-75
2022/08/06 03:49:42;;;;;;;2.63;2.03;;;;;15.20;94828.00;;;;7390052;19;20162;-73
2022/08/06 03:52:16;;;;;;;3.17;2.25;;;;;15.20;94826.00;;;;7396043;19;20259;-75
2022/08/06 03:54:54;;;;;;;4.40;2.40;;;;;15.30;94828.00;;;;7394106;19;20125;-75
2022/08/06 03:57:25;;;;;;;2.97;2.00;;;;;15.10;94829.00;;;;7397373;19;20591;-74
2022/08/06 04:00:15;;;;;;;4.10;2.38;;;;;15.30;94828.00;;;;7392217;19;20129;-75
2022/08/06 04:02:57;;;;;;;3.53;2.40;;;;;15.10;94825.00;;;;7393173;19;20184;-74
2022/08/06 04:05:33;;;;;;;5.43;2.40;;;;;15.10;94829.00;;;;7394093;19;20607;-74
2022/08/06 04:08:11;;;;;;;2.97;1.95;;;;;14.90;94819.00;;;;7396540;19;20136;-76
2022/08/06 04:10:48;;;;;;;2.80;2.20;;;;;14.90;94828.00;;;;7392422;19;20129;-75
2022/08/06 04:13:26;;;;;;;3.90;2.42;;;;;14.90;94829.00;;;;7394909;19;20238;-76
2022/08/06 04:16:21;;;;;;;3.53;2.15;;;;;14.70;94828.00;;;;7392041;19;20919;-75
2022/08/06 04:19:00;;;;;;;5.30;2.17;;;;;14.70;94838.00;;;;7395167;19;20136;-75
2022/08/06 04:21:39;;;;;;;2.78;2.20;;;;;14.60;94840.00;;;;7394515;19;20600;-75
2022/08/06 04:24:33;;;;;;;3.80;2.28;;;;;14.60;94848.00;;;;7390481;19;20192;-76
2022/08/06 04:27:19;;;;;;;3.83;2.13;;;;;14.70;94846.00;;;;7394260;19;20600;-75
2022/08/06 04:29:49;;;;;;;5.32;2.40;;;;;14.70;94842.00;;;;7390874;19;20551;-75
2022/08/06 04:32:26;;;;;;;4.20;2.35;;;;;14.60;94842.00;;;;7394991;19;20153;-75
2022/08/06 04:35:01;;;;;;;2.63;2.40;;;;;14.60;94848.00;;;;7391824;19;20132;-76
2022/08/06 04:37:55;;;;;;;7.65;2.35;;;;;14.50;94845.00;;;;7396426;19;20143;-75
2022/08/06 04:40:27;;;;;;;6.18;2.17;;;;;14.50;94836.00;;;;7391536;19;20153;-76
2022/08/06 04:43:19;;;;;;;3.60;2.30;;;;;14.60;94841.00;;;;7395759;19;20597;-75
2022/08/06 04:45:49;;;;;;;2.45;2.25;;;;;14.60;94842.00;;;;7393518;19;20128;-76
2022/08/06 04:48:42;;;;;;;4.57;2.30;;;;;14.70;94853.00;;;;7395817;19;20140;-76
2022/08/06 04:51:14;;;;;;;2.50;2.25;;;;;14.70;94857.00;;;;7391951;19;20645;-76
2022/08/06 04:54:07;;;;;;;6.88;2.20;;;;;14.60;94859.00;;;;7393117;19;20137;-75
2022/08/06 04:56:40;;;;;;;3.20;2.05;;;;;14.60;94860.00;;;;7392811;19;20148;-75
2022/08/06 04:59:17;;;;;;;2.88;1.95;;;;;14.70;94858.00;;;;7393782;19;20157;-75
2022/08/06 05:01:46;;;;;;;7.32;2.45;;;;;14.70;94864.00;;;;7392204;19;20604;-76
2022/08/06 05:04:29;;;;;;;4.43;2.83;;;;;14.60;94868.00;;;;7394495;19;20616;-75
2022/08/06 05:07:22;;;;;;;5.35;2.50;;;;;14.70;94870.00;;;;7396210;19;20140;-75
2022/08/06 05:09:50;;;;;;;5.32;2.70;;;;;14.90;94874.00;;;;7391016;19;20200;-75
2022/08/06 05:12:40;;;;;;;3.88;2.10;;;;;15.10;94869.00;;;;7393099;19;20164;-75
2022/08/06 05:15:31;;;;;;;3.38;2.50;;;;;15.30;94875.00;;;;7394440;19;20611;-75
2022/08/06 05:18:25;;;;;;;3.92;2.47;;;;;15.50;94876.00;;;;7391618;19;20187;-75
2022/08/06 05:21:20;;;;;;;4.40;2.67;;;;;15.70;94876.00;;;;7391645;19;20148;-76
2022/08/06 05:24:20;;;;;;;4.53;2.60;;;;;15.60;94881.00;;;;7391730;19;20148;-75
2022/08/06 05:27:12;;;;;;;4.45;2.75;;;;;15.60;94882.00;;;;7394385;19;20130;-75
2022/08/06 05:29:50;;;;;;;4.82;2.63;;;;;15.70;94882.00;;;;7391927;19;20149;-76
2022/08/06 05:32:21;;;;;;;2.97;2.22;;;;;15.70;94887.00;;;;7392446;19;20144;-77
2022/08/06 05:34:57;;;;;;;6.80;2.55;;;;;15.50;94884.00;;;;7390225;19;20602;-75
2022/08/06 05:37:24;;;;;;;2.85;2.55;;;;;15.60;94890.00;;;;7395361;19;21740;-75
2022/08/06 05:40:12;;;;;;;3.80;2.50;;;;;15.60;94885.00;;;;7389743;19;20468;-76
2022/08/06 05:43:01;;;;;;;7.57;2.95;;;;;15.70;94886.00;;;;7390546;19;20144;-74
2022/08/06 05:45:29;;;;;;;10.93;2.92;;;;;15.90;94889.00;;;;7390813;19;20820;-76
2022/08/06 05:48:07;;;;;;;4.33;2.60;;;;;16.00;94889.00;;;;7392204;19;20632;-75
2022/08/06 05:50:44;;;;;;;3.83;3.00;;;;;16.10;94891.00;;;;7392952;19;20638;-76
2022/08/06 05:53:29;;;;;;;5.13;2.80;;;;;15.80;94898.00;;;;7390367;19;20175;-75
2022/08/06 05:56:23;;;;;;;3.35;2.65;;;;;15.90;94897.00;;;;7389770;19;20156;-74
2022/08/06 05:59:26;;;;;;;3.97;2.78;;;;;15.90;94900.00;;;;7391028;19;20156;-75
2022/08/06 06:02:14;;;;;;;5.00;2.60;;;;;15.80;94902.00;;;;7390870;19;20233;-77
2022/08/06 06:04:48;;;;;;;4.13;2.67;;;;;15.90;94907.00;;;;7389651;19;20624;-75
2022/08/06 06:07:37;;;;;;;3.17;2.78;;;;;16.00;94913.00;;;;7393953;19;20125;-75
2022/08/06 06:10:33;;;;;;;6.50;2.78;;;;;15.70;94912.00;;;;7388369;19;20607;-76
2022/08/06 06:13:03;;;;;;;4.25;3.00;;;;;15.80;94914.00;;;;7389426;19;20553;-75
2022/08/06 06:16:26;;;;;;;8.00;2.92;;;;;15.80;94910.00;;;;7392783;19;20499;-76
2022/08/06 06:19:07;;;;;;;7.38;2.42;;;;;16.00;94917.00;;;;7388612;19;20129;-75
2022/08/06 06:21:56;;;;;;;5.43;3.05;;;;;16.20;94916.00;;;;7387612;19;20525;-75
2022/08/06 06:24:46;;;;;;;6.80;3.25;;;;;16.50;94925.00;;;;7392207;19;20183;-75
2022/08/06 06:27:56;;;;;;;4.13;2.60;;;;;16.80;94913.00;;;;7392407;19;20240;-75
2022/08/06 06:30:41;;;;;;;7.43;3.08;;;;;17.20;94921.00;;;;7388703;19;20654;-75
2022/08/06 06:33:21;;;;;;;4.88;2.97;;;;;17.30;94923.00;;;;7391002;19;20136;-76
2022/08/06 06:36:30;;;;;;;3.80;3.05;;;;;17.00;94925.00;;;;7399736;19;20136;-76
2022/08/06 06:39:19;;;;;;;4.97;3.22;;;;;17.20;94929.00;;;;7396490;19;20160;-76
2022/08/06 06:42:06;;;;;;;3.42;2.58;;;;;17.30;94924.00;;;;7399600;19;20648;-76
2022/08/06 06:45:27;;;;;;;4.35;2.80;;;;;17.40;94924.00;;;;7397142;19;20164;-76
2022/08/06 06:48:35;;;;;;;5.20;2.60;;;;;17.60;94924.00;;;;7394691;19;20148;-76
2022/08/06 06:51:16;;;;;;;5.57;2.88;;;;;17.80;94923.00;;;;7397714;19;20152;-76
2022/08/06 06:54:04;;;;;;;4.75;2.70;;;;;17.70;94928.00;;;;7394867;19;20204;-77
2022/08/06 06:56:51;;;;;;;7.38;2.50;;;;;18.20;94915.00;;;;7394543;19;20141;-77
2022/08/06 06:59:36;;;;;;;3.17;2.83;;;;;18.50;94918.00;;;;7396622;19;20160;-76
2022/08/06 07:02:35;;;;;;;3.65;2.47;;;;;18.70;94925.00;;;;7398881;19;20155;-76
2022/08/06 07:05:04;;;;;;;4.97;2.22;;;;;18.70;94926.00;;;;7395294;19;20160;-76
2022/08/06 07:07:45;;;;;;;9.68;2.55;;;;;18.60;94920.00;;;;7397587;19;20148;-77
2022/08/06 07:10:19;;;;;;;8.07;2.33;;;;;18.50;94937.00;;;;7391740;19;20758;-76
2022/08/06 07:12:55;;;;;;;8.20;2.78;;;;;18.20;94937.00;;;;7396867;19;20141;-77
2022/08/06 07:15:24;;;;;;;7.00;2.38;;;;;18.30;94928.00;;;;7397518;19;20136;-76
2022/08/06 07:17:53;;;;;;;6.85;2.10;;;;;18.30;94928.00;;;;7394408;19;20161;-76
2022/08/06 07:20:47;;;;;;;3.92;2.38;;;;;18.30;94937.00;;;;7398074;19;20233;-76
2022/08/06 07:23:16;;;;;;;5.55;2.28;;;;;18.60;94928.00;;;;7397219;19;20160;-76
2022/08/06 07:26:19;;;;;;;5.07;2.20;;;;;18.70;94928.00;;;;7388066;19;20160;-76
2022/08/06 07:28:49;;;;;;;3.83;2.10;;;;;19.10;94927.00;;;;7389289;19;20141;-76
2022/08/06 07:31:32;;;;;;;5.25;2.10;;;;;19.30;94927.00;;;;7391652;19;20132;-76
2022/08/06 07:34:04;;;;;;;6.35;2.13;;;;;19.50;94928.00;;;;7391431;19;20591;-76
2022/08/06 07:36:48;;;;;;;3.88;2.30;;;;;19.60;94923.00;;;;7390067;19;20166;-76
2022/08/06 07:39:30;;;;;;;4.10;2.22;;;;;19.80;94926.00;;;;7392364;19;20151;-76
2022/08/06 07:42:14;;;;;;;4.70;1.95;;;;;20.10;94918.00;;;;7387941;19;20155;-76
2022/08/06 07:44:49;;;;;;;9.73;2.30;;;;;20.40;94924.00;;;;7389559;19;20156;-75
2022/08/06 07:47:34;;;;;;;5.57;2.05;;;;;20.20;94918.00;;;;7388482;19;20152;-75
2022/08/06 07:50:14;;;;;;;4.18;1.90;;;;;20.70;94919.00;;;;7386108;19;20577;-75
2022/08/06 07:52:53;;;;;;;5.50;1.90;;;;;20.70;94915.00;;;;7390836;19;20157;-75
2022/08/06 07:55:26;;;;;;;3.75;2.00;;;;;21.20;94927.00;;;;7390465;19;20141;-76
2022/08/06 07:58:08;;;;;;;6.35;1.77;;;;;21.20;94920.00;;;;7389643;19;20139;-75
2022/08/06 08:00:37;;;;;;;3.53;1.80;;;;;21.40;94918.00;;;;7390371;19;20200;-78
2022/08/06 08:06:25;;;;;;;3.58;1.73;;;;;20.90;94911.00;;;;7389793;19;20133;-76
2022/08/06 08:09:16;;;;;;;3.50;1.77;;;;;20.90;94923.00;;;;7389414;19;20596;-76
2022/08/06 08:11:56;;;;;;;6.13;1.63;;;;;21.20;94926.00;;;;7389342;19;20220;-77
2022/08/06 08:14:51;;;;;;;3.40;1.70;;;;;20.90;94921.00;;;;7387318;19;20132;-77
2022/08/06 08:17:19;;;;;;;5.60;1.73;;;;;20.60;94923.00;;;;7390201;19;20204;-76
2022/08/06 08:20:04;;;;;;;3.50;1.60;;;;;21.00;94931.00;;;;7392672;19;20159;-76
2022/08/06 08:22:44;;;;;;;2.05;1.70;;;;;21.20;94930.00;;;;7395250;19;20133;-76
2022/08/06 08:25:24;;;;;;;4.00;1.80;;;;;21.00;94922.00;;;;7389587;19;20204;-76
2022/08/06 08:28:11;;;;;;;3.42;1.70;;;;;21.20;94925.00;;;;7392669;19;20129;-76
2022/08/06 08:30:47;;;;;;;10.73;2.20;;;;;21.00;94925.00;;;;7394741;19;20149;-77
2022/08/06 08:33:19;;;;;;;4.63;1.88;;;;;21.20;94924.00;;;;7394438;19;20184;-75
2022/08/06 08:35:53;;;;;;;2.70;1.55;;;;;21.60;94918.00;;;;7393088;19;20488;-75
2022/08/06 08:38:36;;;;;;;4.45;1.75;;;;;21.80;94914.00;;;;7393755;19;20136;-74
2022/08/06 08:41:19;;;;;;;2.03;1.50;;;;;21.80;94922.00;;;;7392945;19;20156;-75
2022/08/06 08:43:55;;;;;;;5.35;1.80;;;;;22.00;94925.00;;;;7396476;19;20156;-76
2022/08/06 08:46:49;;;;;;;6.93;1.42;;;;;21.70;94930.00;;;;7393231;19;20623;-74
2022/08/06 08:49:39;;;;;;;6.05;1.70;;;;;21.60;94932.00;;;;7392339;19;20453;-75
2022/08/06 08:52:17;;;;;;;2.83;1.38;;;;;21.70;94923.00;;;;7388667;19;20148;-74
2022/08/06 08:54:51;;;;;;;5.93;1.80;;;;;21.80;94938.00;;;;7389585;19;20588;-77
2022/08/06 08:57:27;;;;;;;10.20;1.80;;;;;21.90;94941.00;;;;7394112;19;20204;-76
2022/08/06 09:00:15;;;;;;;5.30;2.10;;;;;21.90;94930.00;;;;7389184;19;20188;-75
2022/08/06 09:02:53;;;;;;;5.82;1.80;;;;;22.30;94928.00;;;;7390906;19;20149;-75
2022/08/06 09:05:24;;;;;;;2.67;1.40;;;;;22.20;94930.00;;;;7389566;19;20219;-76
2022/08/06 09:08:02;;;;;;;3.67;1.52;;;;;22.60;94921.00;;;;7393034;19;20129;-76
2022/08/06 09:10:30;;;;;;;3.20;1.50;;;;;22.80;94927.00;;;;7392452;19;20137;-76
2022/08/06 09:13:08;;;;;;;2.55;1.60;;;;;22.70;94940.00;;;;7393871;19;20152;-75
2022/08/06 09:15:55;;;;;;;2.10;1.50;;;;;22.60;94939.00;;;;7392914;19;20623;-76
2022/08/06 09:18:30;;;;;;;2.47;1.50;;;;;22.70;94945.00;;;;7393038;19;20132;-76
2022/08/06 09:21:01;;;;;;;3.75;1.90;;;;;22.50;94947.00;;;;7392943;19;20596;-77
2022/08/06 09:23:39;;;;;;;2.00;1.30;;;;;22.60;94939.00;;;;7396004;19;20128;-77
2022/08/06 09:26:39;;;;;;;2.40;1.60;;;;;23.00;94948.00;;;;7385809;19;20172;-77
2022/08/06 09:29:22;;;;;;;4.68;1.42;;;;;23.10;94941.00;;;;7395015;19;20135;-76
2022/08/06 09:32:06;;;;;;;4.63;1.30;;;;;23.00;94946.00;;;;7390773;19;20136;-76
2022/08/06 09:34:45;;;;;;;3.78;1.65;;;;;23.20;94938.00;;;;7392551;19;20156;-77
2022/08/06 09:37:28;;;;;;;3.55;1.52;;;;;23.80;94940.00;;;;7391473;19;20153;-76
2022/08/06 09:40:22;;;;;;;2.47;1.40;;;;;23.50;94952.00;;;;7391290;19;20505;-76
2022/08/06 09:42:52;;;;;;;2.28;1.52;;;;;23.80;94948.00;;;;7391135;19;20525;-76
2022/08/06 09:45:28;;;;;;;2.75;1.42;;;;;23.60;94947.00;;;;7392436;19;20603;-74
2022/08/06 09:48:09;;;;;;;4.20;1.38;;;;;23.60;94940.00;;;;7390299;19;20155;-75
2022/08/06 09:50:49;;;;;;;1.92;1.40;;;;;23.60;94941.00;;;;7390836;19;20156;-76
2022/08/06 09:53:18;;;;;;;2.30;1.30;;;;;23.30;94942.00;;;;7390074;19;20161;-73
2022/08/06 09:55:54;;;;;;;2.55;1.40;;;;;23.60;94945.00;;;;7389366;19;20132;-76
2022/08/06 09:58:38;;;;;;;4.15;1.40;;;;;23.80;94948.00;;;;7388482;19;20168;-76
2022/08/06 10:01:21;;;;;;;3.60;1.40;;;;;24.00;94941.00;;;;7391674;19;20160;-77
2022/08/06 10:03:57;;;;;;;4.70;1.73;;;;;24.40;94948.00;;;;7394282;19;20124;-75
2022/08/06 10:07:03;;;;;;;4.95;1.50;;;;;23.90;94941.00;;;;7389645;19;20184;-75
2022/08/06 10:09:37;;;;;;;2.30;1.58;;;;;24.00;94949.00;;;;7386998;19;20216;-74
2022/08/06 10:12:22;;;;;;;1.63;1.40;;;;;24.20;94951.00;;;;7387051;19;20142;-75
2022/08/06 10:14:53;;;;;;;3.10;1.52;;;;;24.00;94955.00;;;;7388681;19;20615;-77
2022/08/06 10:17:27;;;;;;;3.38;1.50;;;;;24.10;94941.00;;;;7389557;19;20143;-75
2022/08/06 10:20:16;;;;;;;3.53;1.42;;;;;24.50;94936.00;;;;7389588;19;20137;-74
2022/08/06 10:22:56;;;;;;;6.90;1.70;;;;;23.90;94971.00;;;;7390350;19;20181;-75
2022/08/06 10:25:32;;;;;;;2.45;1.40;;;;;23.60;94950.00;;;;7388728;19;20247;-75
2022/08/06 10:28:19;;;;;;;3.35;1.30;;;;;24.00;94956.00;;;;7391294;19;20636;-74
2022/08/06 10:30:54;;;;;;;5.15;1.55;;;;;24.60;94951.00;;;;7387602;19;20133;-74
2022/08/06 10:33:52;;;;;;;1.23;1.13;;;;;24.90;94929.00;;;;7388647;19;20208;-77
2022/08/06 10:36:35;;;;;;;2.90;1.70;;;;;24.90;94938.00;;;;7387053;19;20607;-76
2022/08/06 10:39:10;;;;;;;4.28;1.48;;;;;25.40;94935.00;;;;7392187;19;20596;-77
2022/08/06 10:42:00;;;;;;;3.17;1.70;;;;;26.00;94939.00;;;;7389787;19;20746;-75
2022/08/06 10:44:50;;;;;;;2.35;1.38;;;;;25.80;94946.00;;;;7392006;19;20825;-76
2022/08/06 10:47:21;;;;;;;2.33;1.30;;;;;25.80;94958.00;;;;7389690;19;20148;-75
2022/08/06 10:50:15;;;;;;;5.30;1.50;;;;;24.90;94945.00;;;;7387279;19;20152;-76
2022/08/06 10:53:05;;;;;;;2.90;1.55;;;;;25.20;94938.00;;;;7386670;19;20131;-76
2022/08/06 10:56:02;;;;;;;1.33;1.23;;;;;25.90;94961.00;;;;7390517;19;20200;-75
2022/08/06 10:58:32;;;;;;;1.20;1.10;;;;;24.50;94956.00;;;;7388039;19;20153;-78
2022/08/06 11:01:11;;;;;;;2.95;1.60;;;;;23.50;94964.00;;;;7389666;19;20141;-75
2022/08/06 11:04:05;;;;;;;2.88;1.40;;;;;23.50;94947.00;;;;7388835;19;20172;-77
2022/08/06 11:07:16;;;;;;;2.92;1.70;;;;;23.90;94956.00;;;;7391664;19;20125;-76
2022/08/06 11:10:21;;;;;;;3.15;1.20;;;;;24.70;94933.00;;;;7386375;19;20630;-76
2022/08/06 11:13:23;;;;;;;2.78;1.50;;;;;24.50;94952.00;;;;7387299;19;20148;-75
2022/08/06 11:16:26;;;;;;;5.70;1.40;;;;;24.80;94940.00;;;;7388645;19;20121;-77
2022/08/06 11:19:04;;;;;;;2.22;1.48;;;;;25.30;94939.00;;;;7391410;19;20148;-76
2022/08/06 11:22:00;;;;;;;2.42;1.42;;;;;25.80;94926.00;;;;7391585;19;20156;-76
2022/08/06 11:24:58;;;;;;;1.55;1.30;;;;;25.10;94949.00;;;;7395264;19;20745;-75
2022/08/06 11:27:56;;;;;;;2.28;1.50;;;;;23.90;94931.00;;;;7395461;19;20615;-76
2022/08/06 11:30:39;;;;;;;2.63;1.42;;;;;25.10;94923.00;;;;7390965;19;20154;-75
2022/08/06 11:33:09;;;;;;;5.28;1.42;;;;;26.10;94921.00;;;;7387557;19;20189;-73
2022/08/06 11:35:49;;;;;;;1.50;1.15;;;;;26.20;94935.00;;;;7397081;19;20152;-76
2022/08/06 11:38:42;;;;;;;3.40;1.63;;;;;24.70;94938.00;;;;7395081;19;20171;-76
2022/08/06 11:41:22;;;;;;;4.38;1.60;;;;;24.70;94914.00;;;;7394057;19;20131;-75
2022/08/06 11:44:10;;;;;;;3.25;1.10;;;;;26.00;94914.00;;;;7393316;19;20492;-74
2022/08/06 11:47:08;;;;;;;2.60;1.40;;;;;27.20;94910.00;;;;7397413;19;20132;-75
2022/08/06 11:49:42;;;;;;;1.80;1.55;;;;;27.70;94900.00;;;;7394620;19;20492;-75
2022/08/06 11:52:42;;;;;;;2.72;1.50;;;;;27.40;94905.00;;;;7394673;19;20167;-75
2022/08/06 11:55:14;;;;;;;2.30;1.50;;;;;26.30;94903.00;;;;7389795;19;20173;-77
2022/08/06 11:58:19;;;;;;;2.40;1.80;;;;;26.60;94921.00;;;;7392773;19;20133;-75
2022/08/06 12:00:59;;;;;;;2.63;1.67;;;;;26.40;94907.00;;;;7387566;19;20173;-76
2022/08/06 12:03:53;;;;;;;2.72;1.60;;;;;26.70;94910.00;;;;7391994;19;20196;-75
2022/08/06 12:06:23;;;;;;;2.72;1.42;;;;;26.00;94918.00;;;;7388371;19;20625;-76
2022/08/06 12:09:09;;;;;;;5.45;1.33;;;;;25.70;94905.00;;;;7391706;19;20640;-75
2022/08/06 12:11:50;;;;;;;2.03;1.52;;;;;26.40;94903.00;;;;7387062;19;20228;-75
2022/08/06 12:14:40;;;;;;;2.83;1.38;;;;;27.00;94902.00;;;;7388939;19;20159;-75
2022/08/06 12:17:21;;;;;;;3.88;1.30;;;;;27.20;94910.00;;;;7387107;19;20161;-75
2022/08/06 12:20:40;;;;;;;2.75;1.40;;;;;25.80;94918.00;;;;7388362;19;20504;-73
2022/08/06 12:23:16;;;;;;;4.22;1.65;;;;;26.00;94896.00;;;;7388181;19;20480;-74
2022/08/06 12:26:24;;;;;;;6.22;1.67;;;;;26.50;94895.00;;;;7386868;19;20176;-75
2022/08/06 12:29:04;;;;;;;5.00;1.42;;;;;27.00;94895.00;;;;7385395;19;20170;-74
2022/08/06 12:31:42;;;;;;;4.60;1.67;;;;;26.90;94912.00;;;;7386972;19;20483;-75
2022/08/06 12:34:25;;;;;;;2.58;1.30;;;;;25.70;94906.00;;;;7385568;19;20152;-75
2022/08/06 12:37:05;;;;;;;2.75;1.30;;;;;26.00;94882.00;;;;7389778;19;20188;-74
2022/08/06 12:42:36;;;;;;;2.90;1.50;;;;;26.90;94867.00;;;;7387296;19;20172;-76
2022/08/06 12:45:26;;;;;;;5.07;1.60;;;;;26.90;94880.00;;;;7388318;19;20186;-73
2022/08/06 12:48:20;;;;;;;1.55;1.40;;;;;26.80;94870.00;;;;7386939;19;20168;-75
2022/08/06 12:51:13;;;;;;;2.60;1.30;;;;;27.00;94871.00;;;;7387104;19;20157;-76
2022/08/06 12:54:03;;;;;;;1.58;1.40;;;;;26.80;94872.00;;;;7388562;19;20144;-75
2022/08/06 12:56:33;;;;;;;3.72;1.48;;;;;26.10;94865.00;;;;7389059;19;20129;-76
2022/08/06 12:59:11;;;;;;;2.42;1.38;;;;;26.10;94865.00;;;;7390522;19;20586;-76
2022/08/06 13:01:51;;;;;;;1.45;1.20;;;;;26.60;94862.00;;;;7386682;19;20484;-76
2022/08/06 13:04:42;;;;;;;4.65;1.40;;;;;26.50;94859.00;;;;7388074;19;20145;-75
2022/08/06 13:07:12;;;;;;;6.85;1.45;;;;;26.60;94867.00;;;;7384575;19;20153;-76
2022/08/06 13:09:48;;;;;;;2.03;1.38;;;;;26.80;94861.00;;;;7387620;19;20602;-76
2022/08/06 13:12:36;;;;;;;2.33;1.40;;;;;25.90;94884.00;;;;7387839;19;20975;-76
2022/08/06 13:15:31;;;;;;;2.10;1.50;;;;;24.60;94866.00;;;;7387804;19;20186;-76
2022/08/06 13:18:16;;;;;;;3.67;1.40;;;;;25.40;94857.00;;;;7386902;19;20205;-77
2022/08/06 13:21:22;;;;;;;2.72;1.60;;;;;26.00;94851.00;;;;7389612;19;20121;-77
2022/08/06 13:24:10;;;;;;;1.58;1.45;;;;;25.30;94879.00;;;;7384902;19;20151;-75
2022/08/06 13:26:57;;;;;;;2.70;1.50;;;;;24.70;94867.00;;;;7384505;19;20227;-76
2022/08/06 13:29:32;;;;;;;3.60;1.60;;;;;25.50;94859.00;;;;7384112;19;20152;-75
2022/08/06 13:32:27;;;;;;;2.83;1.30;;;;;26.60;94860.00;;;;7385158;19;20152;-75
2022/08/06 13:35:11;;;;;;;2.15;1.50;;;;;26.70;94855.00;;;;7386648;19;20136;-76
2022/08/06 13:38:01;;;;;;;1.55;1.40;;;;;27.10;94847.00;;;;7387963;19;20220;-77
2022/08/06 13:40:48;;;;;;;6.10;1.58;;;;;27.30;94848.00;;;;7390209;19;20160;-76
2022/08/06 13:43:39;;;;;;;4.00;1.50;;;;;27.90;94853.00;;;;7387730;19;20139;-75